• Join FlightAware (Why Join?)
  • Login
  • US Flag 
01:49PM EDT


 

Airport Tracker/Info


-or-


 

Live Flight TrackerFlight Track Log ✈ TSU191 ✈ 03-May-2013 ✈ CYHM - KPTK

Flight Track Log - Related Links

Times and Time Zones

All times are in EDT time to prevent confusion due to time zone crossing. See the TSU191 flight status page for this flight to view local times or setup timezone preferences in your user account.

Time Position Orientation Groundspeed Altitude Reporting Facility
EDT Latitude Longitude Course Direction KTS MPH feet Rate Location/Type
01:24PM 43.1500 -79.9000 360° North 10 12 800  Level Toronto Center
01:25PM 43.1667 -79.9000 360° North 20 23 800  Level Toronto Center
01:27PM 43.1667 -79.9000 180° South 20 23 800  Level Toronto Center
01:28PM 43.1667 -79.9333 270° West 30 35 800  Level Toronto Center
01:29PM 43.1667 -79.9333 270° West 10 12 800 300 Level Toronto Center
01:31PM 43.1667 -79.8833 90° East 130 150 1,800 780 Climbing Toronto Center
01:32PM 43.1333 -79.8333 132° Southeast 170 196 3,200 1,260 Climbing Toronto Center
01:33PM 43.1000 -79.8000 144° Southeast 200 230 4,400 1,200 Climbing Toronto Center
01:34PM 43.0833 -79.8667 251° West 220 253 5,700 1,680 Climbing Toronto Center
01:35PM 43.1000 -79.9333 289° West 240 276 7,800 1,800 Climbing Toronto Center
01:36PM 43.1167 -80.0167 285° West 230 265 9,300 1,500 Climbing Toronto Center
01:37PM 43.1167 -80.1167 270° West 230 265 10,900 1,680 Climbing Toronto Center
01:38PM 43.1000 -80.2000 255° West 230 265 12,700 1,500 Climbing Toronto Center
01:39PM 43.1000 -80.2667 270° West 220 253 14,000 720 Climbing Toronto Center
01:40PM 43.0833 -80.3667 257° West 240 276 14,200  Climbing Toronto Center
01:41PM 43.0833 -80.4833 270° West 270 311 14,100  Descending Toronto Center
01:42PM 43.0667 -80.5833 257° West 290 334 14,200  Climbing Toronto Center
01:43PM 43.0500 -80.7000 259° West 290 334 14,200 -60 Level Toronto Center
01:44PM 43.0500 -80.8000 270° West 290 334 14,100  Descending Toronto Center
01:45PM 43.0333 -80.9167 259° West 290 334 14,200  Climbing Toronto Center
01:46PM 43.0333 -81.0167 270° West 290 334 14,200  Level Toronto Center
01:47PM 43.0333 -81.1333 270° West 280 322 14,200 -60 Level Toronto Center
01:48PM 43.0333 -81.1171 270° West  Level FlightAware Approximate
01:48PM 43.0167 -81.2333 257° West 280 322 14,100  Level Toronto Center
01:49PM 43.0000 -81.3167 255° West 280 322 14,100  Level Toronto Center
01:50PM 42.9667 -81.4333 249° West 280 322 14,100  Level Toronto Center
01:51PM 42.9333 -81.5167 241° Southwest 280 322 14,100 -240 Level Toronto Center
01:52PM 42.9167 -81.6333 259° West 280 322 13,700 -600 Descending Toronto Center
01:53PM 42.8833 -81.7333 246° West 290 334 13,000 -720 Descending Toronto Center
01:54PM 42.8572 -81.8861 257° West 288 331 12,100 -480 Descending Cleveland Center
01:55PM 42.8308 -81.9872 250° West 288 331 11,900 -840 Descending Cleveland Center
01:56PM 42.8047 -82.0944 252° West 288 331 10,500 -1,140 Descending Cleveland Center
01:57PM 42.7761 -82.1983 249° West 293 337 9,700 -1,140 Descending Cleveland Center
01:59PM 42.7500 -82.3500 257° West 290 334 7,700 -1,200 Descending Toronto Center
01:59PM 42.7500 -82.4069 270° West 288 331 7,300 -840 Descending Cleveland Center
02:00PM 42.7528 -82.4917 273° West 288 331 6,600 -660 Descending Cleveland Center
02:01PM 42.7550 -82.6078 272° West 280 322 6,000 -360 Descending Cleveland Center
02:02PM 42.7519 -82.6614 266° West 280 322 6,100 60 Climbing Cleveland Center
02:02PM 42.7511 -82.7150 269° West 285 328 6,100 -120 Level Cleveland Center
02:03PM 42.7414 -82.7825 259° West 283 326 6,000 -420 Descending Cleveland Center
02:03PM 42.7406 -82.8306 269° West 285 328 5,700 -1,020 Descending Cleveland Center
02:04PM 42.7372 -82.8900 266° West 284 327 5,000 -1,140 Descending Cleveland Center
02:05PM 42.7331 -82.9944 267° West 273 314 4,000 -480 Descending Cleveland Center
02:06PM 42.7331 -83.0933 270° West 232 267 4,100  Climbing Cleveland Center
02:07PM 42.7353 -83.1753 272° West 220 253 4,100 -360 Level Cleveland Center
02:08PM 42.7397 -83.2547 274° West 208 239 3,400 -540 Descending Cleveland Center
02:09PM 42.7400 -83.3367 270° West 199 229 3,100 -240 Descending Cleveland Center
02:10PM 42.7339 -83.4072 263° West 185 213 3,000 -300 Descending Cleveland Center
02:11PM 42.7097 -83.4625 239° Southwest 159 183 2,500 -600 Descending Cleveland Center
02:12PM 42.6764 -83.4611 178° South 119 137 1,800 -720 Descending Cleveland Center
02:14PM 42.6656 -83.4205 154° Southeast  Level Estimated
02:21PM 42.6656 -83.4205 154° Southeast  Level Estimated
02:22PM 42.6656 -83.4205 154° Southeast  Level Estimated